Langley, Washington
Current Conditions -  °F | °C
As of 5:53 AM on Saturday 22 Nov 2014 (Local Time) from KPAE Reporting Station
Broken Clouds Broken Clouds  
Wind Chill: 39°   Ceiling: 9500
Heat Index: 43°   Visibility: 10mi
Dew Point: 40°   Wind: 7mph
Humidity: 89%   Direction: 170°S
Pressure: 29.66"   Gusts: NA
Location:  48.04°N, 122.41°W
Report Text: KPAE 221353Z AUTO 17006KT 10SM BKN095 06/04 A2966 RMK AO2 SLP046 T00610044
Loading
Personal Weather Stations






























Interactive Weather Map New forecast layout! Learn more

10-Day Weather Forecast

Advertisements
Track Severe Weather on mobile